Time;durP1;ratioP1;P1;durP2;ratioP2;P2;SDS_P1;SDS_P2;PMS_P1;PMS_P2;Temp;Humidity;BMP_temperature;BMP_pressure;BME280_temperature;BME280_humidity;BME280_pressure;Samples;Min_cycle;Max_cycle;Signal;HPM_P1;HPM_P2
2022/08/24 00:01:23;;;;;;;16.50;10.43;;;;;;;19.19;100.00;96548.56;5004862;28;20054;-59
2022/08/24 00:03:50;;;;;;;13.65;10.00;;;;;;;19.24;100.00;96550.84;5004960;28;20057;-60
2022/08/24 00:06:22;;;;;;;17.55;10.70;;;;;;;19.17;100.00;96556.63;5004680;28;20137;-60
2022/08/24 00:08:51;;;;;;;18.60;10.93;;;;;;;19.16;100.00;96571.91;5004674;28;20057;-61
2022/08/24 00:11:18;;;;;;;15.40;9.93;;;;;;;19.01;100.00;96569.88;5004599;28;20057;-60
2022/08/24 00:13:46;;;;;;;17.42;9.45;;;;;;;19.08;100.00;96576.13;5004784;28;20076;-60
2022/08/24 00:16:14;;;;;;;16.77;9.40;;;;;;;18.97;100.00;96553.13;5004514;28;20062;-60
2022/08/24 00:18:43;;;;;;;17.45;8.82;;;;;;;19.09;100.00;96585.34;5004450;28;20049;-60
2022/08/24 00:21:11;;;;;;;13.57;7.95;;;;;;;18.90;100.00;96603.81;5004604;28;20414;-60
2022/08/24 00:23:37;;;;;;;12.38;7.88;;;;;;;18.37;100.00;96531.22;5004980;28;20057;-60
2022/08/24 00:26:05;;;;;;;15.23;8.48;;;;;;;18.89;100.00;96616.25;5004463;28;20061;-60
2022/08/24 00:28:32;;;;;;;11.75;7.18;;;;;;;18.94;100.00;96632.59;5004569;28;20049;-61
2022/08/24 00:30:59;;;;;;;10.85;7.30;;;;;;;18.98;100.00;96627.69;5004690;28;20483;-61
2022/08/24 00:33:25;;;;;;;10.07;6.90;;;;;;;19.09;100.00;96636.69;4996667;28;20058;-60
2022/08/24 00:35:52;;;;;;;7.88;6.80;;;;;;;19.01;100.00;96632.44;4985041;28;20067;-60
2022/08/24 00:38:19;;;;;;;10.35;6.30;;;;;;;18.68;100.00;96585.88;4985088;28;20058;-61
2022/08/24 00:40:48;;;;;;;10.90;6.28;;;;;;;19.22;100.00;96648.78;4984498;28;20475;-60
2022/08/24 00:43:20;;;;;;;11.10;6.97;;;;;;;19.28;100.00;96647.06;4987137;28;20058;-60
2022/08/24 00:45:52;;;;;;;11.73;6.22;;;;;;;19.40;100.00;96666.06;4987011;28;20672;-60
2022/08/24 00:48:26;;;;;;;10.63;6.10;;;;;;;18.84;100.00;96627.22;4986985;28;20484;-60
2022/08/24 00:50:57;;;;;;;12.15;7.35;;;;;;;18.87;100.00;96677.66;4988349;28;20567;-61
2022/08/24 00:53:33;;;;;;;12.90;7.72;;;;;;;18.96;100.00;96686.28;4988776;28;20081;-60
2022/08/24 00:56:05;;;;;;;13.00;7.75;;;;;;;19.10;100.00;96669.13;4988582;28;20058;-61
2022/08/24 00:58:40;;;;;;;10.88;7.03;;;;;;;19.27;100.00;96672.75;4988278;28;20050;-60
2022/08/24 01:01:10;;;;;;;9.68;6.68;;;;;;;19.36;100.00;96665.34;4987820;28;20058;-60
2022/08/24 01:03:37;;;;;;;8.63;6.80;;;;;;;19.35;100.00;96666.56;4986671;28;20138;-60
2022/08/24 01:06:04;;;;;;;8.07;6.82;;;;;;;19.30;100.00;96650.22;4987945;28;20054;-60
2022/08/24 01:08:31;;;;;;;10.95;7.30;;;;;;;19.41;100.00;96664.81;4987837;28;20536;-60
2022/08/24 01:11:04;;;;;;;13.60;6.95;;;;;;;19.48;100.00;96656.22;4988247;28;20485;-61
2022/08/24 01:13:33;;;;;;;12.15;7.82;;;;;;;19.30;100.00;96667.09;4988277;28;20046;-60
2022/08/24 01:16:07;;;;;;;9.38;7.25;;;;;;;19.25;100.00;96650.72;4988071;28;20057;-60
2022/08/24 01:18:50;;;;;;;12.82;7.13;;;;;;;19.27;100.00;96670.75;4987880;28;20054;-61
2022/08/24 01:21:20;;;;;;;;;;;;;;;19.31;100.00;96667.88;4988430;28;20069;-61
2022/08/24 01:23:56;;;;;;;8.45;7.07;;;;;;;19.24;100.00;96659.59;4988079;28;20388;-60
2022/08/24 01:26:32;;;;;;;8.40;6.18;;;;;;;19.03;100.00;96663.66;4987883;28;20060;-61
2022/08/24 01:29:08;;;;;;;12.80;7.15;;;;;;;18.18;100.00;96635.75;4987806;28;20082;-62
2022/08/24 01:31:35;;;;;;;10.13;7.82;;;;;;;18.38;100.00;96689.91;4987904;28;20076;-60
2022/08/24 01:34:03;;;;;;;14.18;8.13;;;;;;;18.49;100.00;96687.66;4999275;28;20135;-60
2022/08/24 01:36:44;;;;;;;14.23;8.73;;;;;;;18.45;100.00;96689.75;5005757;28;20057;-61
2022/08/24 01:39:32;;;;;;;18.55;7.93;;;;;;;18.58;100.00;96675.84;5007589;28;20065;-61
2022/08/24 01:42:00;;;;;;;13.48;7.47;;;;;;;18.61;100.00;96687.03;5007237;28;20057;-61
2022/08/24 01:44:31;;;;;;;11.63;7.25;;;;;;;18.66;100.00;96696.94;5006982;28;20061;-61
2022/08/24 01:46:58;;;;;;;11.93;6.97;;;;;;;18.63;100.00;96695.00;5007081;28;20061;-61
2022/08/24 01:49:29;;;;;;;12.10;8.52;;;;;;;18.70;100.00;96684.41;5006989;28;20130;-61
2022/08/24 01:51:57;;;;;;;12.88;7.85;;;;;;;18.70;100.00;96687.22;5005522;28;20444;-60
2022/08/24 01:54:25;;;;;;;11.93;7.65;;;;;;;18.69;100.00;96688.47;5005253;28;20054;-60
2022/08/24 01:56:52;;;;;;;16.52;7.53;;;;;;;18.54;100.00;96687.16;5005207;28;20518;-60
2022/08/24 01:59:19;;;;;;;17.75;7.93;;;;;;;18.47;100.00;96670.47;5006699;28;20137;-60
2022/08/24 02:01:51;;;;;;;12.73;8.07;;;;;;;18.26;100.00;96676.44;5004859;28;20057;-61
2022/08/24 02:04:19;;;;;;;18.48;7.57;;;;;;;18.02;100.00;96644.06;5006710;28;20072;-60
2022/08/24 02:06:45;;;;;;;10.25;7.25;;;;;;;18.25;100.00;96677.69;5004976;28;20050;-60
2022/08/24 02:09:12;;;;;;;14.77;7.10;;;;;;;18.22;100.00;96688.97;5006453;28;20057;-60
2022/08/24 02:11:40;;;;;;;13.65;7.20;;;;;;;17.74;100.00;96616.56;5006839;28;20077;-60
2022/08/24 02:14:07;;;;;;;10.27;6.93;;;;;;;18.17;100.00;96664.22;5006287;28;20535;-61
2022/08/24 02:16:34;;;;;;;12.63;7.32;;;;;;;18.33;100.00;96687.53;5005212;28;20065;-62
2022/08/24 02:19:00;;;;;;;10.48;7.32;;;;;;;18.24;100.00;96684.50;5021111;28;20356;-60
2022/08/24 02:21:28;;;;;;;11.13;7.50;;;;;;;18.41;100.00;96694.63;5021070;28;20060;-60
2022/08/24 02:23:54;;;;;;;12.15;7.80;;;;;;;18.42;100.00;96701.81;5006090;28;20065;-60
2022/08/24 02:26:21;;;;;;;17.08;8.23;;;;;;;18.54;100.00;96694.78;5005867;28;20492;-61
2022/08/24 02:28:53;;;;;;;11.63;7.22;;;;;;;18.57;100.00;96694.72;5006145;28;20064;-62
2022/08/24 02:31:20;;;;;;;10.98;7.18;;;;;;;18.56;100.00;96689.56;5004137;28;20555;-61
2022/08/24 02:33:47;;;;;;;11.27;7.35;;;;;;;18.59;100.00;96706.28;4995912;28;20054;-60
2022/08/24 02:36:14;;;;;;;11.98;7.68;;;;;;;18.50;100.00;96697.66;4986319;28;20116;-60
2022/08/24 02:38:52;;;;;;;12.75;7.90;;;;;;;18.64;100.00;96696.56;4999990;28;20078;-61
2022/08/24 02:41:20;;;;;;;12.68;7.95;;;;;;;18.32;100.00;96641.06;4984640;28;20058;-61
2022/08/24 02:43:47;;;;;;;15.68;8.05;;;;;;;18.57;100.00;96689.13;4986412;28;20085;-61
2022/08/24 02:46:23;;;;;;;16.23;7.78;;;;;;;18.69;100.00;96694.06;4986115;28;20077;-62
2022/08/24 02:48:49;;;;;;;10.77;7.75;;;;;;;18.68;100.00;96702.94;4985953;28;20050;-60
2022/08/24 02:51:37;;;;;;;16.52;8.88;;;;;;;18.76;100.00;96710.75;4986047;28;20136;-62
2022/08/24 02:54:11;;;;;;;12.90;8.02;;;;;;;18.78;100.00;96707.53;4985770;28;20136;-61
2022/08/24 02:56:38;;;;;;;15.40;8.48;;;;;;;18.81;100.00;96707.44;4985739;28;20530;-60
2022/08/24 02:59:05;;;;;;;12.00;9.13;;;;;;;18.60;100.00;96682.63;4984417;28;20050;-60
2022/08/24 03:01:32;;;;;;;15.57;7.85;;;;;;;18.47;100.00;96670.47;4984212;28;20058;-60
2022/08/24 03:03:59;;;;;;;16.65;8.32;;;;;;;18.87;100.00;96700.13;4985883;28;20054;-60
2022/08/24 03:06:25;;;;;;;17.23;8.85;;;;;;;18.89;100.00;96708.88;4983534;28;20505;-61
2022/08/24 03:08:52;;;;;;;11.10;8.43;;;;;;;18.76;100.00;96705.13;4986081;28;20058;-60
2022/08/24 03:11:23;;;;;;;15.70;8.43;;;;;;;18.36;100.00;96630.59;4984153;28;20094;-61
2022/08/24 03:13:54;;;;;;;13.93;8.32;;;;;;;18.77;100.00;96695.50;4985709;28;20057;-61
2022/08/24 03:16:21;;;;;;;11.57;7.80;;;;;;;18.60;100.00;96657.38;4984010;28;20050;-61
2022/08/24 03:18:48;;;;;;;16.23;8.75;;;;;;;18.82;100.00;96697.03;4985845;28;20492;-61
2022/08/24 03:21:15;;;;;;;12.07;8.75;;;;;;;18.57;100.00;96633.00;4985266;28;20046;-60
2022/08/24 03:23:42;;;;;;;10.65;8.15;;;;;;;18.94;100.00;96688.72;4985647;28;20449;-60
2022/08/24 03:26:09;;;;;;;14.02;8.30;;;;;;;18.99;100.00;96681.81;4985544;28;20050;-60
2022/08/24 03:28:36;;;;;;;14.57;8.18;;;;;;;18.94;100.00;96677.50;4985507;28;20063;-61
2022/08/24 03:31:03;;;;;;;10.40;8.75;;;;;;;19.03;100.00;96679.72;4985522;28;20058;-62
2022/08/24 03:33:30;;;;;;;12.18;7.97;;;;;;;18.80;100.00;96648.94;4991983;28;20159;-61
2022/08/24 03:35:57;;;;;;;19.67;8.38;;;;;;;19.13;100.00;96690.72;5003534;28;20491;-60
2022/08/24 03:38:24;;;;;;;19.92;7.25;;;;;;;19.08;100.00;96685.63;5004602;28;20050;-61
2022/08/24 03:40:50;;;;;;;11.18;7.65;;;;;;;19.05;100.00;96683.69;5005063;28;20054;-61
2022/08/24 03:46:06;;;;;;;12.68;8.18;;;;;;;19.18;100.00;96686.59;5004953;28;20452;-61
2022/08/24 03:48:34;;;;;;;11.52;7.93;;;;;;;18.79;100.00;96636.16;5004479;28;20049;-61
2022/08/24 03:51:01;;;;;;;12.25;7.45;;;;;;;19.12;100.00;96683.53;5004690;28;20058;-60
2022/08/24 03:53:27;;;;;;;12.63;8.18;;;;;;;19.11;100.00;96687.53;5005025;28;20057;-60
2022/08/24 03:55:54;;;;;;;11.73;8.00;;;;;;;18.95;100.00;96693.09;5003443;28;20058;-60
2022/08/24 03:58:21;;;;;;;13.93;9.10;;;;;;;18.87;100.00;96699.31;5004803;28;20108;-60
2022/08/24 04:00:48;;;;;;;12.93;8.27;;;;;;;18.87;100.00;96700.13;5019707;28;20058;-61
2022/08/24 04:03:15;;;;;;;14.18;7.90;;;;;;;18.79;100.00;96681.84;5003607;28;20056;-60
2022/08/24 04:05:42;;;;;;;11.98;8.98;;;;;;;18.97;100.00;96687.84;5004412;28;20421;-60
2022/08/24 04:08:09;;;;;;;13.90;8.30;;;;;;;19.15;100.00;96690.28;5005244;28;20054;-60
2022/08/24 04:10:37;;;;;;;11.27;8.20;;;;;;;18.86;100.00;96642.38;5004740;28;20061;-59
2022/08/24 04:13:05;;;;;;;12.27;7.68;;;;;;;18.87;100.00;96666.44;5004495;28;20049;-62
2022/08/24 04:15:31;;;;;;;14.15;8.13;;;;;;;19.21;100.00;96683.72;5004965;28;20065;-59
2022/08/24 04:17:58;;;;;;;10.20;8.13;;;;;;;19.38;100.00;96690.97;5008288;28;20089;-60
2022/08/24 04:20:25;;;;;;;14.02;8.60;;;;;;;19.46;100.00;96697.22;5007152;28;20077;-60
2022/08/24 04:22:51;;;;;;;17.75;8.43;;;;;;;19.46;100.00;96681.16;5008457;28;20046;-61
2022/08/24 04:25:19;;;;;;;11.38;8.02;;;;;;;19.61;100.00;96669.56;5008414;28;20077;-60
2022/08/24 04:27:50;;;;;;;12.75;8.00;;;;;;;19.64;100.00;96691.19;5008370;28;20069;-60
2022/08/24 04:30:18;;;;;;;9.35;7.78;;;;;;;19.69;100.00;96699.09;5023255;28;20112;-60
2022/08/24 04:32:44;;;;;;;17.35;9.43;;;;;;;19.46;100.00;96703.63;5005805;28;20061;-60
2022/08/24 04:35:11;;;;;;;13.30;8.20;;;;;;;19.34;100.00;96695.91;4988352;28;20046;-61
2022/08/24 04:37:38;;;;;;;9.95;7.57;;;;;;;19.59;100.00;96700.94;4988484;28;20069;-61
2022/08/24 04:40:06;;;;;;;13.10;7.80;;;;;;;19.65;100.00;96704.03;4988466;28;20062;-61
2022/08/24 04:42:34;;;;;;;17.15;7.53;;;;;;;19.71;100.00;96697.44;4988176;28;20061;-60
2022/08/24 04:45:03;;;;;;;12.45;8.05;;;;;;;20.02;100.00;96714.72;4988167;28;20109;-61
2022/08/24 04:47:30;;;;;;;12.15;8.30;;;;;;;20.10;100.00;96702.06;4988603;28;20101;-60
2022/08/24 04:49:56;;;;;;;10.05;7.70;;;;;;;20.18;100.00;96726.00;4987974;28;20046;-60
2022/08/24 04:52:23;;;;;;;12.80;8.60;;;;;;;20.22;100.00;96712.63;4987588;28;20065;-60
2022/08/24 04:54:50;;;;;;;15.77;7.97;;;;;;;20.27;100.00;96712.09;4987682;28;20226;-60
2022/08/24 04:57:17;;;;;;;14.30;7.82;;;;;;;20.33;100.00;96671.75;4987787;28;20098;-60
2022/08/24 04:59:44;;;;;;;11.27;8.43;;;;;;;20.58;100.00;96685.13;4987795;28;20539;-61
2022/08/24 05:02:12;;;;;;;11.63;8.15;;;;;;;20.87;100.00;96716.88;4987982;28;20050;-60
2022/08/24 05:04:39;;;;;;;10.23;7.85;;;;;;;20.82;100.00;96708.97;4988217;28;20065;-60
2022/08/24 05:07:05;;;;;;;12.07;8.32;;;;;;;20.82;100.00;96703.34;4987826;28;20076;-60
2022/08/24 05:09:32;;;;;;;15.07;8.48;;;;;;;20.94;100.00;96711.03;4986908;28;20058;-61
2022/08/24 05:12:00;;;;;;;12.77;7.63;;;;;;;21.19;97.36;96719.59;4987857;28;20513;-60
2022/08/24 05:14:27;;;;;;;13.02;8.32;;;;;;;21.31;99.13;96712.41;4987827;28;20046;-61
2022/08/24 05:16:55;;;;;;;10.98;7.13;;;;;;;21.14;98.99;96683.50;4987673;28;20068;-60
2022/08/24 05:19:22;;;;;;;13.13;8.60;;;;;;;21.35;100.00;96713.88;4986676;28;20074;-61
2022/08/24 05:21:49;;;;;;;10.65;7.28;;;;;;;21.37;96.62;96683.19;5006423;28;20081;-61
2022/08/24 05:24:17;;;;;;;11.60;7.32;;;;;;;21.37;93.98;96700.09;5006087;28;20050;-62
2022/08/24 05:26:44;;;;;;;9.32;7.28;;;;;;;21.19;94.98;96660.44;5006877;28;20049;-61
2022/08/24 05:29:11;;;;;;;13.77;7.22;;;;;;;21.49;94.43;96719.06;5006288;28;20057;-61
2022/08/24 05:31:43;;;;;;;16.05;7.53;;;;;;;21.66;96.17;96717.72;5005291;28;20070;-61
2022/08/24 05:34:10;;;;;;;11.90;7.25;;;;;;;21.61;95.94;96709.81;5004893;28;20100;-62
2022/08/24 05:36:39;;;;;;;10.27;6.90;;;;;;;21.85;95.73;96702.63;5006952;28;20054;-61
2022/08/24 05:39:09;;;;;;;9.55;6.75;;;;;;;21.84;94.60;96695.41;5006917;28;20085;-63
2022/08/24 05:41:39;;;;;;;12.93;6.63;;;;;;;22.11;94.63;96704.16;5006728;28;20064;-61
2022/08/24 05:44:11;;;;;;;16.07;6.70;;;;;;;22.28;92.71;96696.34;5021211;28;20531;-61
2022/08/24 05:46:38;;;;;;;11.15;7.22;;;;;;;22.45;91.90;96700.59;5006780;28;20057;-61
2022/08/24 05:49:04;;;;;;;13.07;7.63;;;;;;;22.54;91.38;96694.28;5006435;28;20054;-61
2022/08/24 05:51:31;;;;;;;9.93;7.45;;;;;;;22.51;90.03;96644.34;5006615;28;20054;-60
2022/08/24 05:53:59;;;;;;;10.50;8.18;;;;;;;23.05;88.38;96701.25;5006453;28;20053;-60
2022/08/24 05:56:26;;;;;;;14.20;9.60;;;;;;;23.04;87.81;96668.59;5006326;28;20049;-59
2022/08/24 05:58:57;;;;;;;13.15;7.22;;;;;;;23.18;85.00;96660.38;5006124;28;20156;-60
2022/08/24 06:01:25;;;;;;;14.18;6.70;;;;;;;23.60;83.64;96692.66;5006267;28;20108;-60
2022/08/24 06:03:54;;;;;;;10.20;6.43;;;;;;;23.68;82.91;96701.63;5006066;28;20439;-60
2022/08/24 06:06:22;;;;;;;10.88;7.07;;;;;;;23.80;82.08;96700.75;5004666;28;20472;-60
2022/08/24 06:08:51;;;;;;;10.57;7.68;;;;;;;22.20;80.52;96396.72;5002271;28;20049;-62
2022/08/24 06:11:23;;;;;;;14.48;8.18;;;;;;;24.14;79.34;96655.28;5019149;28;20505;-59
2022/08/24 06:13:59;;;;;;;9.43;6.07;;;;;;;24.62;75.66;96708.22;5005718;28;20317;-61
2022/08/24 06:16:27;;;;;;;9.20;7.40;;;;;;;24.41;78.25;96635.50;5005878;28;20058;-59
2022/08/24 06:18:54;;;;;;;11.63;5.70;;;;;;;24.69;73.75;96659.75;5004486;28;20058;-58
2022/08/24 06:21:24;;;;;;;10.80;5.75;;;;;;;25.18;73.28;96694.34;5006050;28;20054;-57
2022/08/24 06:23:54;;;;;;;10.82;6.13;;;;;;;25.30;71.66;96701.13;5005201;28;20079;-58
2022/08/24 06:29:07;;;;;;;8.68;5.38;;;;;;;25.48;68.47;96700.31;5005415;28;20061;-59
2022/08/24 06:31:39;;;;;;;10.93;5.72;;;;;;;25.41;69.53;96677.94;5005571;28;20064;-58
2022/08/24 06:34:12;;;;;;;9.52;6.47;;;;;;;25.53;69.27;96674.91;5004828;28;20593;-59
2022/08/24 06:36:40;;;;;;;5.65;5.07;;;;;;;25.86;68.25;96692.75;5001275;28;20050;-58
2022/08/24 06:39:08;;;;;;;8.98;5.75;;;;;;;26.00;69.43;96691.31;5003091;28;20054;-61
2022/08/24 06:41:37;;;;;;;11.63;7.03;;;;;;;25.89;68.40;96654.13;5004317;28;21305;-58
2022/08/24 06:44:05;;;;;;;9.43;5.97;;;;;;;26.18;65.89;96694.03;5004027;28;20093;-67
2022/08/24 06:46:32;;;;;;;18.25;7.05;;;;;;;25.51;66.90;96671.00;5019326;28;20520;-61
2022/08/24 06:48:59;;;;;;;10.82;6.18;;;;;;;25.58;67.92;96630.91;5004826;28;20085;-60
2022/08/24 06:51:25;;;;;;;9.00;6.18;;;;;;;26.09;68.36;96689.22;5004637;28;20153;-69
2022/08/24 06:53:54;;;;;;;10.98;6.40;;;;;;;26.26;65.89;96689.59;5004720;28;20061;-61
2022/08/24 06:56:21;;;;;;;12.57;6.35;;;;;;;25.76;67.46;96596.78;5003270;28;20432;-62
2022/08/24 06:58:48;;;;;;;10.40;5.85;;;;;;;26.36;65.73;96659.88;5004647;28;20064;-62
2022/08/24 07:01:19;;;;;;;11.68;6.15;;;;;;;26.70;67.42;96693.41;5004818;28;20052;-59
2022/08/24 07:03:45;;;;;;;12.88;5.47;;;;;;;26.29;66.27;96694.28;5004672;28;20124;-58
2022/08/24 07:06:13;;;;;;;18.20;7.20;;;;;;;26.31;66.25;96666.22;5004154;28;20049;-57
2022/08/24 07:08:41;;;;;;;17.40;6.60;;;;;;;26.63;67.67;96688.09;5004930;28;20052;-65
2022/08/24 07:11:09;;;;;;;23.60;7.85;;;;;;;26.05;67.50;96625.38;5003141;28;20060;-73
2022/08/24 07:13:37;;;;;;;17.40;6.38;;;;;;;26.95;66.59;96692.91;5004086;28;20055;-59
2022/08/24 07:16:04;;;;;;;18.08;7.63;;;;;;;26.61;66.54;96697.09;5002724;28;20053;-60
2022/08/24 07:18:31;;;;;;;19.20;6.63;;;;;;;26.26;65.28;96686.75;5004592;28;20519;-60
2022/08/24 07:21:01;;;;;;;19.65;7.85;;;;;;;26.62;66.25;96714.91;5002462;28;20614;-65
2022/08/24 07:23:29;;;;;;;20.15;6.50;;;;;;;25.93;65.29;96646.22;5002565;28;20050;-58
2022/08/24 07:26:12;;;;;;;18.77;6.78;;;;;;;26.04;66.33;96652.97;5004271;28;20136;-58
2022/08/24 07:29:03;;;;;;;16.80;6.78;;;;;;;26.04;66.22;96640.81;5005085;28;20046;-58
2022/08/24 07:31:37;;;;;;;21.05;6.72;;;;;;;26.09;65.00;96685.59;5004277;28;20068;-60
2022/08/24 07:34:06;;;;;;;20.63;6.65;;;;;;;25.68;65.94;96670.16;5000385;28;20140;-61
2022/08/24 07:36:34;;;;;;;21.60;6.53;;;;;;;25.99;67.35;96723.75;5002834;28;20064;-59
2022/08/24 07:39:01;;;;;;;19.10;6.97;;;;;;;25.86;67.38;96652.25;5002807;28;20062;-61
2022/08/24 07:41:30;;;;;;;18.38;6.13;;;;;;;25.86;65.11;96652.25;5003227;28;20132;-60
2022/08/24 07:44:16;;;;;;;18.45;6.68;;;;;;;25.92;64.26;96684.38;4996012;28;20145;-65
2022/08/24 07:46:43;;;;;;;15.70;6.38;;;;;;;26.63;64.19;96716.50;4983836;28;20451;-60
2022/08/24 07:49:11;;;;;;;18.25;6.65;;;;;;;26.55;63.65;96707.56;4996028;28;20096;-67
2022/08/24 07:51:58;;;;;;;23.02;6.43;;;;;;;26.80;62.63;96682.75;5006146;28;20050;-62
2022/08/24 07:54:27;;;;;;;19.35;6.30;;;;;;;26.78;62.83;96700.31;5008313;28;20053;-56
2022/08/24 07:56:54;;;;;;;23.13;6.88;;;;;;;26.49;64.18;96726.53;5007133;28;20105;-64
2022/08/24 07:59:21;;;;;;;24.90;6.80;;;;;;;26.31;64.97;96654.84;5008272;28;20057;-64
2022/08/24 08:01:49;;;;;;;17.02;6.35;;;;;;;26.96;62.82;96728.59;5006606;28;20052;-60
2022/08/24 08:04:20;;;;;;;23.15;7.82;;;;;;;27.35;60.87;96715.94;5007928;28;20487;-57
2022/08/24 08:06:48;;;;;;;18.83;6.30;;;;;;;27.74;59.52;96716.63;5008417;28;20483;-60
2022/08/24 08:09:14;;;;;;;17.27;6.30;;;;;;;27.17;60.94;96636.47;5022192;28;20049;-59
2022/08/24 08:11:41;;;;;;;10.95;5.80;;;;;;;27.44;60.43;96673.16;5006422;28;20523;-66
2022/08/24 08:14:08;;;;;;;17.55;6.80;;;;;;;27.17;61.27;96733.16;5008131;28;20053;-61
2022/08/24 08:16:34;;;;;;;19.75;6.10;;;;;;;26.91;60.68;96663.06;5008828;28;20066;-60
2022/08/24 08:19:01;;;;;;;13.48;5.95;;;;;;;27.47;60.65;96723.41;5007352;28;20107;-59
2022/08/24 08:24:35;;;;;;;24.88;6.75;;;;;;;27.12;60.66;96728.16;5008532;28;20519;-65
2022/08/24 08:27:02;;;;;;;14.93;5.47;;;;;;;26.97;59.95;96690.34;5007512;28;20508;-58
2022/08/24 08:29:33;;;;;;;13.40;5.22;;;;;;;26.84;61.28;96711.78;5007892;28;20520;-58
2022/08/24 08:32:00;;;;;;;21.80;6.78;;;;;;;26.61;62.24;96659.34;5006324;28;20057;-59
2022/08/24 08:34:28;;;;;;;17.25;5.95;;;;;;;27.51;61.65;96706.91;4987947;28;20066;-59
2022/08/24 08:36:56;;;;;;;25.48;7.97;;;;;;;27.97;57.40;96695.81;5003894;28;20512;-57
2022/08/24 08:39:24;;;;;;;24.25;7.40;;;;;;;27.98;58.12;96706.72;5007738;28;20054;-65
2022/08/24 08:41:51;;;;;;;19.85;8.23;;;;;;;27.63;58.65;96690.84;5008048;28;20050;-57
2022/08/24 08:44:48;;;;;;;22.45;8.52;;;;;;;25.75;59.84;96393.75;5002425;28;20061;-63
2022/08/24 08:47:26;;;;;;;23.73;8.77;;;;;;;28.11;58.54;96695.78;4989870;28;20046;-57
2022/08/24 08:50:17;;;;;;;24.88;8.32;;;;;;;28.13;55.46;96684.69;4996419;28;20058;-65
2022/08/24 08:53:02;;;;;;;27.65;8.50;;;;;;;28.17;55.82;96692.25;5001522;28;20547;-61
2022/08/24 08:55:40;;;;;;;17.90;6.10;;;;;;;28.15;57.10;96684.97;5007327;28;20058;-59
2022/08/24 08:58:31;;;;;;;21.00;8.60;;;;;;;28.36;55.03;96682.94;5007758;28;20057;-57
2022/08/24 09:01:05;;;;;;;22.45;7.80;;;;;;;27.86;56.92;96670.78;5007526;28;20072;-58
2022/08/24 09:04:01;;;;;;;18.50;7.03;;;;;;;28.11;58.02;96675.84;5005522;28;20135;-61
2022/08/24 09:06:43;;;;;;;21.23;6.05;;;;;;;28.31;55.02;96683.66;5007319;28;20054;-63
2022/08/24 09:09:29;;;;;;;19.83;6.50;;;;;;;27.98;55.97;96678.22;5006112;28;20054;-59
2022/08/24 09:12:31;;;;;;;24.55;6.13;;;;;;;27.89;56.37;96692.59;5004699;28;20054;-58
2022/08/24 09:15:13;;;;;;;31.08;6.95;;;;;;;28.17;55.42;96690.94;5005123;28;20062;-64
2022/08/24 09:18:18;;;;;;;15.73;5.80;;;;;;;28.15;55.24;96661.41;5005267;28;20065;-61
2022/08/24 09:21:07;;;;;;;19.08;6.22;;;;;;;27.77;54.01;96554.13;5004688;28;20073;-66
2022/08/24 09:23:59;;;;;;;18.77;6.00;;;;;;;28.45;55.37;96699.91;5006106;28;20050;-60
2022/08/24 09:26:51;;;;;;;14.18;5.47;;;;;;;28.52;54.76;96702.34;5006754;28;20077;-65
2022/08/24 09:29:27;;;;;;;20.05;6.57;;;;;;;28.49;54.39;96654.09;5005237;28;20061;-63
2022/08/24 09:32:09;;;;;;;25.77;7.63;;;;;;;28.98;53.54;96702.44;5006919;28;20057;-68
2022/08/24 09:35:09;;;;;;;30.63;6.43;;;;;;;29.49;53.08;96696.78;5003437;28;20062;-75
2022/08/24 09:37:59;;;;;;;22.63;7.18;;;;;;;29.28;53.32;96663.88;5006379;28;20473;-60
2022/08/24 09:40:50;;;;;;;27.13;6.28;;;;;;;28.98;54.26;96696.72;5006519;28;20077;-62
2022/08/24 09:43:35;;;;;;;22.73;6.97;;;;;;;28.69;56.59;96686.25;5006314;28;20493;-56
2022/08/24 09:46:26;;;;;;;21.52;6.57;;;;;;;29.26;53.83;96678.66;5006729;28;20193;-65
2022/08/24 09:49:05;;;;;;;24.88;6.82;;;;;;;28.73;55.99;96686.03;5005837;28;20061;-59
2022/08/24 09:51:59;;;;;;;24.55;6.55;;;;;;;28.95;55.24;96687.09;5006410;28;20068;-60
2022/08/24 09:54:28;;;;;;;28.73;6.43;;;;;;;29.03;53.92;96687.44;5004962;28;20456;-59
2022/08/24 09:57:30;;;;;;;31.65;7.00;;;;;;;28.76;53.35;96645.13;5004008;28;20050;-56
2022/08/24 10:00:26;;;;;;;23.20;7.25;;;;;;;29.54;53.69;96645.44;4996480;28;20069;-64
2022/08/24 10:03:07;;;;;;;17.15;5.57;;;;;;;29.19;53.18;96678.31;5005744;28;20045;-55
2022/08/24 10:05:47;;;;;;;18.40;6.95;;;;;;;29.41;54.30;96679.34;5004901;28;20057;-57
2022/08/24 10:08:51;;;;;;;25.17;7.07;;;;;;;28.68;54.08;96675.34;5006020;28;20050;-59
2022/08/24 10:11:36;;;;;;;19.58;6.78;;;;;;;28.46;55.87;96663.63;5005197;28;20057;-67
2022/08/24 10:14:34;;;;;;;19.83;6.38;;;;;;;28.71;56.15;96654.38;5005728;28;20434;-61
2022/08/24 10:17:16;;;;;;;16.45;5.53;;;;;;;28.05;57.57;96637.16;5004841;28;20065;-60
2022/08/24 10:19:55;;;;;;;21.05;5.75;;;;;;;28.40;56.30;96635.06;5005669;28;20050;-58
2022/08/24 10:22:29;;;;;;;22.23;5.95;;;;;;;28.18;56.96;96624.13;5003050;28;20316;-59
2022/08/24 10:24:55;;;;;;;21.97;5.67;;;;;;;28.25;56.44;96613.63;5004426;28;20059;-58
2022/08/24 10:27:38;;;;;;;25.50;6.53;;;;;;;28.46;57.00;96598.06;5003238;28;20308;-58
2022/08/24 10:30:37;;;;;;;26.87;7.50;;;;;;;28.54;56.56;96604.94;5004264;28;20208;-57
2022/08/24 10:33:39;;;;;;;29.45;7.60;;;;;;;28.70;54.80;96613.72;4978787;28;20061;-57
2022/08/24 10:36:30;;;;;;;23.95;6.57;;;;;;;28.47;55.45;96616.75;4991532;28;20097;-61
2022/08/24 10:43:32;;;;;;;21.98;6.93;;;;;;;28.63;54.81;96601.97;4986480;28;20058;-63
2022/08/24 10:45:33;;;;;;;24.67;6.82;;;;;;;28.76;55.14;96608.06;4986115;28;20084;-59
2022/08/24 10:48:39;;;;;;;27.90;7.43;;;;;;;29.01;53.05;96605.22;4985780;28;20117;-62
2022/08/24 10:51:49;;;;;;;25.48;7.35;;;;;;;29.03;54.25;96618.97;4985759;28;20054;-64
2022/08/24 10:54:18;;;;;;;35.15;7.80;;;;;;;28.76;55.23;96588.09;5003531;28;20432;-62
2022/08/24 10:57:03;;;;;;;29.77;7.80;;;;;;;29.15;53.63;96626.41;5005577;28;20054;-67
2022/08/24 10:59:49;;;;;;;18.55;5.82;;;;;;;28.20;54.20;96577.28;5004236;28;20072;-65
2022/08/24 11:02:36;;;;;;;42.90;8.47;;;;;;;28.60;55.61;96646.50;5003015;28;20058;-57
2022/08/24 11:05:07;;;;;;;38.65;7.75;;;;;;;28.56;56.33;96642.28;5004961;28;20061;-61
2022/08/24 11:07:35;;;;;;;35.60;7.80;;;;;;;28.24;55.26;96612.84;5000434;28;20053;-60
2022/08/24 11:10:08;;;;;;;43.67;8.27;;;;;;;27.80;57.98;96649.97;5004980;28;20089;-60
2022/08/24 11:12:44;;;;;;;27.50;7.15;;;;;;;27.89;58.05;96621.41;5003384;28;20129;-60
2022/08/24 11:15:16;;;;;;;20.90;6.25;;;;;;;27.69;58.44;96638.41;4985498;28;20057;-67
2022/08/24 11:18:00;;;;;;;40.63;7.63;;;;;;;27.92;58.33;96646.03;4999034;28;20464;-61
2022/08/24 11:20:31;;;;;;;;;;;;;;;27.11;59.84;96638.38;5003920;28;20080;-59
2022/08/24 11:23:16;;;;;;;25.25;7.20;;;;;;;27.29;59.71;96649.63;5005089;28;19948;-70
2022/08/24 11:26:11;;;;;;;36.85;8.45;;;;;;;27.31;59.05;96578.81;5001230;28;20496;-61
2022/08/24 11:28:43;;;;;;;32.40;7.68;;;;;;;27.76;57.21;96626.59;5004670;28;20057;-61
2022/08/24 11:31:21;;;;;;;53.17;8.57;;;;;;;27.99;57.51;96639.94;5004829;28;20089;-68
2022/08/24 11:33:57;;;;;;;28.08;6.55;;;;;;;27.29;57.93;96632.56;5004753;28;20488;-60
2022/08/24 11:36:26;;;;;;;28.00;7.45;;;;;;;27.69;58.11;96655.50;5004594;28;20100;-58
2022/08/24 11:39:12;;;;;;;38.72;9.23;;;;;;;27.52;57.87;96662.94;5004919;28;20094;-67
2022/08/24 11:42:14;;;;;;;33.70;8.48;;;;;;;27.87;56.93;96623.94;5004346;28;20054;-67
2022/08/24 11:44:55;;;;;;;32.97;8.38;;;;;;;28.61;56.03;96650.13;5000811;28;20487;-67
2022/08/24 11:47:56;;;;;;;31.52;6.88;;;;;;;28.96;53.93;96623.06;5004686;28;20054;-63
2022/08/24 11:50:46;;;;;;;34.35;8.07;;;;;;;27.20;53.87;96316.91;5003470;28;20135;-66
2022/08/24 11:53:26;;;;;;;31.75;8.07;;;;;;;29.04;55.23;96654.78;5004546;28;20050;-70
2022/08/24 11:56:05;;;;;;;30.02;8.07;;;;;;;29.15;54.67;96643.53;5004514;28;20053;-59
2022/08/24 11:58:37;;;;;;;27.02;8.32;;;;;;;29.55;52.30;96643.38;5001410;28;20045;-59
2022/08/24 12:01:13;;;;;;;26.35;7.97;;;;;;;29.87;52.60;96652.75;5003205;28;20065;-64